createdAt,value
2022-12-20T00:01:34.616Z,96995.41
2022-12-20T00:04:03.632Z,96992.63
2022-12-20T00:06:30.305Z,96993.56
2022-12-20T00:09:01.145Z,96988.47
2022-12-20T00:11:28.242Z,96976.69
2022-12-20T00:13:55.054Z,96980.19
2022-12-20T00:16:24.119Z,96976.78
2022-12-20T00:18:57.007Z,96978.53
2022-12-20T00:21:24.395Z,96954.28
2022-12-20T00:23:55.026Z,96988.19
2022-12-20T00:26:32.188Z,96991.34
2022-12-20T00:28:59.523Z,96980.84
2022-12-20T00:31:28.301Z,96975.28
2022-12-20T00:33:56.627Z,96989.50
2022-12-20T00:36:25.193Z,96961.94
2022-12-20T00:38:54.201Z,96992.34
2022-12-20T00:41:28.102Z,96958.09
2022-12-20T00:43:54.981Z,96978.75
2022-12-20T00:46:24.756Z,96962.91
2022-12-20T00:48:53.192Z,96983.22
2022-12-20T00:51:23.380Z,96986.72
2022-12-20T00:53:50.339Z,96982.00
2022-12-20T00:56:17.462Z,96980.78
2022-12-20T00:58:44.564Z,96954.91
2022-12-20T01:01:37.708Z,96985.50
2022-12-20T01:04:04.656Z,96973.47
2022-12-20T01:06:32.002Z,96995.13
2022-12-20T01:08:58.843Z,96980.31
2022-12-20T01:11:28.408Z,96991.34
2022-12-20T01:13:58.162Z,96968.72
2022-12-20T01:16:31.240Z,96952.53
2022-12-20T01:19:02.848Z,96951.66
2022-12-20T01:21:29.555Z,96991.25
2022-12-20T01:23:57.291Z,97012.84
2022-12-20T01:26:26.812Z,96994.63
2022-12-20T01:28:56.808Z,97010.97
2022-12-20T01:31:24.740Z,96997.22
2022-12-20T01:33:52.380Z,96983.09
2022-12-20T01:36:25.376Z,96975.13
2022-12-20T01:38:59.281Z,96985.03
2022-12-20T01:41:28.103Z,96977.44
2022-12-20T01:44:07.159Z,96964.09
2022-12-20T01:46:36.385Z,96955.34
2022-12-20T01:49:14.863Z,96931.84
2022-12-20T01:51:45.089Z,96954.84
2022-12-20T01:54:18.561Z,96898.09
2022-12-20T01:56:51.002Z,96943.00
2022-12-20T01:59:18.352Z,96944.78
2022-12-20T02:01:45.262Z,96923.88
2022-12-20T02:04:12.220Z,96906.91
2022-12-20T02:06:39.138Z,96899.50
2022-12-20T02:09:08.445Z,96913.13
2022-12-20T02:12:12.595Z,96929.78
2022-12-20T02:15:06.993Z,96926.88
2022-12-20T02:18:07.482Z,96927.38
2022-12-20T02:20:46.212Z,96919.53
2022-12-20T02:23:50.536Z,96904.16
2022-12-20T02:26:32.385Z,96893.19
2022-12-20T02:29:17.284Z,96908.06
2022-12-20T02:31:53.029Z,96871.66
2022-12-20T02:34:25.119Z,96916.97
2022-12-20T02:36:52.297Z,96920.13
2022-12-20T02:39:19.737Z,96937.16
2022-12-20T02:42:11.508Z,96942.41
2022-12-20T02:45:02.766Z,96920.94
2022-12-20T02:47:39.936Z,96918.56
2022-12-20T02:50:08.697Z,96897.28
2022-12-20T02:52:36.429Z,96877.72
2022-12-20T02:55:05.050Z,96871.78
2022-12-20T02:57:34.062Z,96904.16
2022-12-20T03:00:08.631Z,96889.53
2022-12-20T03:02:54.459Z,96878.72
2022-12-20T03:05:25.368Z,96892.69
2022-12-20T03:07:55.145Z,96890.69
2022-12-20T03:10:24.474Z,96864.25
2022-12-20T03:12:51.112Z,96874.53
2022-12-20T03:15:18.594Z,96863.28
2022-12-20T03:17:46.700Z,96865.31
2022-12-20T03:20:13.402Z,96821.25
2022-12-20T03:22:40.201Z,96835.06
2022-12-20T03:25:07.821Z,96855.66
2022-12-20T03:27:35.754Z,96828.16
2022-12-20T03:30:04.603Z,96823.72
2022-12-20T03:32:34.066Z,96835.88
2022-12-20T03:35:00.856Z,96779.09
2022-12-20T03:37:33.564Z,96852.19
2022-12-20T03:40:03.400Z,96860.16
2022-12-20T03:42:30.432Z,96834.88
2022-12-20T03:44:57.159Z,96831.63
2022-12-20T03:47:26.544Z,96870.94
2022-12-20T03:49:53.306Z,96856.72
2022-12-20T03:52:21.875Z,96866.38
2022-12-20T03:54:49.195Z,96864.69
2022-12-20T03:57:21.062Z,96865.25
2022-12-20T03:59:50.299Z,96845.69
2022-12-20T04:02:19.238Z,96872.22
2022-12-20T04:04:46.009Z,96840.50
2022-12-20T04:07:13.870Z,96850.28
2022-12-20T04:09:44.721Z,96827.03
2022-12-20T04:12:13.299Z,96848.59
2022-12-20T04:14:40.154Z,96848.59
2022-12-20T04:17:07.115Z,96867.97
2022-12-20T04:19:34.713Z,96857.91
2022-12-20T04:22:05.908Z,96853.75
2022-12-20T04:24:45.908Z,96856.34
2022-12-20T04:27:20.226Z,96846.09
2022-12-20T04:29:47.081Z,96867.81
2022-12-20T04:32:16.484Z,96873.00
2022-12-20T04:34:43.268Z,96872.22
2022-12-20T04:37:10.250Z,96875.72
2022-12-20T04:39:45.133Z,96849.72
2022-12-20T04:42:23.669Z,96827.91
2022-12-20T04:44:51.324Z,96862.59
2022-12-20T04:47:23.631Z,96819.84
2022-12-20T04:49:50.598Z,96830.78
2022-12-20T04:52:35.738Z,96825.59
2022-12-20T04:55:02.435Z,96842.13
2022-12-20T04:57:32.201Z,96822.47
2022-12-20T04:59:59.923Z,96827.16
2022-12-20T05:02:26.705Z,96864.75
2022-12-20T05:04:59.561Z,96848.63
2022-12-20T05:07:26.307Z,96829.97
2022-12-20T05:09:55.277Z,96797.63
2022-12-20T05:12:21.887Z,96792.78
2022-12-20T05:14:48.565Z,96804.91
2022-12-20T05:17:19.030Z,96816.50
2022-12-20T05:19:45.799Z,96815.34
2022-12-20T05:22:33.109Z,96771.09
2022-12-20T05:25:24.013Z,96796.47
2022-12-20T05:27:52.529Z,96813.31
2022-12-20T05:30:21.319Z,96810.06
2022-12-20T05:32:48.404Z,96810.94
2022-12-20T05:35:15.328Z,96800.97
2022-12-20T05:37:43.093Z,96829.25
2022-12-20T05:40:16.215Z,96802.31
2022-12-20T05:42:43.651Z,96835.25
2022-12-20T05:45:11.230Z,96819.19
2022-12-20T05:47:46.734Z,96823.09
2022-12-20T05:50:18.480Z,96786.50
2022-12-20T05:53:11.207Z,96811.63
2022-12-20T05:55:47.505Z,96806.22
2022-12-20T05:58:14.295Z,96785.56
2022-12-20T06:00:50.424Z,96802.97
2022-12-20T06:03:17.466Z,96766.59
2022-12-20T06:05:45.400Z,96792.28
2022-12-20T06:08:16.549Z,96758.75
2022-12-20T06:10:43.201Z,96807.69
2022-12-20T06:13:10.329Z,96815.31
2022-12-20T06:15:38.535Z,96804.44
2022-12-20T06:18:06.765Z,96834.19
2022-12-20T06:20:35.049Z,96814.19
2022-12-20T06:23:03.338Z,96804.31
2022-12-20T06:25:36.095Z,96739.19
2022-12-20T06:28:03.510Z,96799.94
2022-12-20T06:30:33.846Z,96800.94
2022-12-20T06:33:06.343Z,96786.91
2022-12-20T06:35:35.588Z,96808.94
2022-12-20T06:38:02.473Z,96819.59
2022-12-20T06:40:32.660Z,96807.56
2022-12-20T06:43:00.967Z,96819.38
2022-12-20T06:45:27.942Z,96818.81
2022-12-20T06:47:55.048Z,96830.75
2022-12-20T06:50:23.099Z,96838.50
2022-12-20T06:52:50.101Z,96834.69
2022-12-20T06:55:17.076Z,96830.44
2022-12-20T06:57:47.223Z,96792.34
2022-12-20T07:00:16.604Z,96820.44
2022-12-20T07:02:43.409Z,96796.06
2022-12-20T07:05:10.077Z,96802.88
2022-12-20T07:07:44.351Z,96814.59
2022-12-20T07:10:11.607Z,96751.47
2022-12-20T07:12:42.496Z,96815.63
2022-12-20T07:15:13.947Z,96812.00
2022-12-20T07:17:40.591Z,96781.34
2022-12-20T07:20:13.245Z,96804.25
2022-12-20T07:22:40.676Z,96807.97
2022-12-20T07:25:07.553Z,96807.81
2022-12-20T07:27:34.300Z,96785.34
2022-12-20T07:30:00.943Z,96818.28
2022-12-20T07:32:27.574Z,96792.88
2022-12-20T07:34:54.187Z,96814.44
2022-12-20T07:37:20.867Z,96798.94
2022-12-20T07:39:47.461Z,96795.13
2022-12-20T07:42:14.574Z,96808.25
2022-12-20T07:44:43.028Z,96812.75
2022-12-20T07:47:10.402Z,96793.19
2022-12-20T07:49:37.264Z,96803.50
2022-12-20T07:52:05.734Z,96783.47
2022-12-20T07:54:37.026Z,96773.84
2022-12-20T07:57:10.387Z,96801.44
2022-12-20T07:59:41.713Z,96794.31
2022-12-20T08:02:13.860Z,96786.97
2022-12-20T08:04:41.230Z,96778.16
2022-12-20T08:07:09.338Z,96759.63
2022-12-20T08:09:40.181Z,96784.75
2022-12-20T08:12:10.029Z,96791.59
2022-12-20T08:14:37.747Z,96789.06
2022-12-20T08:17:04.585Z,96784.69
2022-12-20T08:19:32.918Z,96772.56
2022-12-20T08:21:59.761Z,96798.34
2022-12-20T08:24:26.531Z,96770.94
2022-12-20T08:26:53.221Z,96761.38
2022-12-20T08:29:20.104Z,96789.63
2022-12-20T08:31:50.377Z,96788.72
2022-12-20T08:34:17.642Z,96785.22
2022-12-20T08:36:44.315Z,96768.75
2022-12-20T08:39:11.619Z,96794.50
2022-12-20T08:41:38.387Z,96760.91
2022-12-20T08:44:06.400Z,96795.53
2022-12-20T08:46:33.371Z,96807.50
2022-12-20T08:49:00.059Z,96786.44
2022-12-20T08:51:26.733Z,96773.78
2022-12-20T08:53:53.456Z,96772.22
2022-12-20T08:56:20.220Z,96765.56
2022-12-20T08:58:47.564Z,96767.75
2022-12-20T09:01:16.958Z,96754.56
2022-12-20T09:03:44.521Z,96768.44
2022-12-20T09:06:18.295Z,96726.38
2022-12-20T09:08:44.909Z,96746.22
2022-12-20T09:11:15.770Z,96751.63
2022-12-20T09:13:44.844Z,96762.38
2022-12-20T09:16:14.391Z,96773.69
2022-12-20T09:18:43.904Z,96791.13
2022-12-20T09:21:11.452Z,96807.47
2022-12-20T09:23:38.491Z,96791.50
2022-12-20T09:26:07.919Z,96801.81
2022-12-20T09:28:34.987Z,96789.44
2022-12-20T09:31:03.202Z,96795.22
2022-12-20T09:33:32.016Z,96787.13
2022-12-20T09:36:00.152Z,96810.75
2022-12-20T09:38:27.496Z,96818.53
2022-12-20T09:40:58.359Z,96797.34
2022-12-20T09:43:25.716Z,96795.69
2022-12-20T09:45:56.233Z,96765.25
2022-12-20T09:48:31.896Z,96778.94
2022-12-20T09:51:10.890Z,96785.75
2022-12-20T09:53:55.907Z,96780.53
2022-12-20T09:56:45.184Z,96726.44
2022-12-20T09:59:14.648Z,96729.81
2022-12-20T10:01:46.266Z,96754.50
2022-12-20T10:04:28.822Z,96754.28
2022-12-20T10:07:17.982Z,96747.78
2022-12-20T10:10:14.538Z,96756.28
2022-12-20T10:13:23.656Z,96763.06
2022-12-20T10:15:58.761Z,96755.88
2022-12-20T10:18:58.436Z,96757.78
2022-12-20T10:21:46.319Z,96742.72
2022-12-20T10:24:30.625Z,96722.13
2022-12-20T10:27:03.019Z,96743.00
2022-12-20T10:29:29.734Z,96714.72
2022-12-20T10:32:01.023Z,96702.06
2022-12-20T10:34:33.262Z,96733.28
2022-12-20T10:37:15.876Z,96723.94
2022-12-20T10:39:46.991Z,96726.03
2022-12-20T10:42:38.629Z,96724.38
2022-12-20T10:45:23.527Z,96718.50
2022-12-20T10:47:51.698Z,96718.88
2022-12-20T10:50:22.978Z,96701.16
2022-12-20T10:53:11.084Z,96696.25
2022-12-20T10:55:42.741Z,96659.50
2022-12-20T10:58:28.011Z,96684.38
2022-12-20T11:01:18.521Z,96666.88
2022-12-20T11:04:06.572Z,96669.22
2022-12-20T11:06:43.265Z,96672.41
2022-12-20T11:09:31.280Z,96661.81
2022-12-20T11:12:08.616Z,96654.53
2022-12-20T11:14:39.743Z,96663.72
2022-12-20T11:17:12.681Z,96673.25
2022-12-20T11:19:54.674Z,96664.06
2022-12-20T11:22:34.579Z,96659.22
2022-12-20T11:25:30.127Z,96652.78
2022-12-20T11:27:56.706Z,96657.72
2022-12-20T11:30:40.587Z,96667.94
2022-12-20T11:33:27.881Z,96655.66
2022-12-20T11:36:14.549Z,96657.72
2022-12-20T11:38:50.315Z,96658.16
2022-12-20T11:41:49.068Z,96635.22
2022-12-20T11:44:37.754Z,96625.34
2022-12-20T11:47:32.571Z,96630.53
2022-12-20T11:50:35.513Z,96630.72
2022-12-20T11:53:16.672Z,96605.19
2022-12-20T11:55:46.880Z,96625.81
2022-12-20T11:58:26.864Z,96593.53
2022-12-20T12:01:00.174Z,96607.16
2022-12-20T12:03:35.441Z,96605.31
2022-12-20T12:06:18.648Z,96611.06
2022-12-20T12:08:51.570Z,96576.09
2022-12-20T12:12:05.078Z,96600.91
2022-12-20T12:15:16.939Z,96609.19
2022-12-20T12:18:00.808Z,96563.88
2022-12-20T12:20:52.250Z,96570.72
2022-12-20T12:23:30.577Z,96614.00
2022-12-20T12:26:10.537Z,96598.84
2022-12-20T12:28:37.631Z,96629.13
2022-12-20T12:31:10.775Z,96618.97
2022-12-20T12:33:48.345Z,96596.56
2022-12-20T12:36:30.570Z,96594.53
2022-12-20T12:39:34.503Z,96595.31
2022-12-20T12:42:13.201Z,96592.47
2022-12-20T12:44:49.201Z,96583.63
2022-12-20T12:47:29.239Z,96583.38
2022-12-20T12:49:57.038Z,96563.81
2022-12-20T12:52:49.592Z,96570.59
2022-12-20T12:55:35.055Z,96569.31
2022-12-20T12:58:22.556Z,96567.19
2022-12-20T13:01:00.556Z,96569.84
2022-12-20T13:03:54.592Z,96570.06
2022-12-20T13:06:25.232Z,96561.94
2022-12-20T13:09:04.272Z,96552.06
2022-12-20T13:11:46.231Z,96545.28
2022-12-20T13:14:25.492Z,96545.81
2022-12-20T13:17:25.528Z,96525.78
2022-12-20T13:19:52.220Z,96523.47
2022-12-20T13:22:24.725Z,96518.00
2022-12-20T13:25:04.036Z,96544.91
2022-12-20T13:27:39.091Z,96547.56
2022-12-20T13:30:14.829Z,96547.03
2022-12-20T13:32:47.575Z,96548.84
2022-12-20T13:35:29.612Z,96542.06
2022-12-20T13:38:02.076Z,96544.69
2022-12-20T13:40:50.154Z,96535.28
2022-12-20T13:43:20.150Z,96529.84
2022-12-20T13:45:53.159Z,96532.69
2022-12-20T13:48:26.501Z,96510.81
2022-12-20T13:50:57.535Z,96510.59
2022-12-20T13:53:30.071Z,96504.56
2022-12-20T13:55:57.383Z,96514.50
2022-12-20T13:58:27.901Z,96528.31
2022-12-20T14:01:04.268Z,96499.91
2022-12-20T14:03:31.971Z,96495.44
2022-12-20T14:06:02.358Z,96505.00
2022-12-20T14:08:33.149Z,96508.94
2022-12-20T14:11:10.598Z,96511.53
2022-12-20T14:13:39.970Z,96509.44
2022-12-20T14:16:18.090Z,96509.94
2022-12-20T14:19:00.115Z,96490.44
2022-12-20T14:21:27.903Z,96518.53
2022-12-20T14:23:57.536Z,96482.06
2022-12-20T14:26:27.434Z,96521.13
2022-12-20T14:28:59.132Z,96516.44
2022-12-20T14:31:30.013Z,96523.47
2022-12-20T14:34:11.853Z,96518.19
2022-12-20T14:36:41.577Z,96496.06
2022-12-20T14:39:27.551Z,96510.88
2022-12-20T14:41:58.748Z,96527.03
2022-12-20T14:44:27.904Z,96509.38
2022-12-20T14:47:02.239Z,96481.19
2022-12-20T14:49:38.571Z,96493.94
2022-12-20T14:52:35.842Z,96511.34
2022-12-20T14:55:10.007Z,96450.84
2022-12-20T14:57:37.263Z,96527.97
2022-12-20T15:00:16.039Z,96531.59
2022-12-20T15:02:46.212Z,96524.84
2022-12-20T15:05:35.314Z,96506.63
2022-12-20T15:08:20.601Z,96486.91
2022-12-20T15:11:10.698Z,96473.91
2022-12-20T15:13:49.965Z,96448.88
2022-12-20T15:16:18.471Z,96460.59
2022-12-20T15:18:46.415Z,96445.75
2022-12-20T15:21:26.389Z,96433.47
2022-12-20T15:23:55.332Z,96428.03
2022-12-20T15:26:26.065Z,96450.47
2022-12-20T15:28:53.791Z,96461.72
2022-12-20T15:31:30.695Z,96450.47
2022-12-20T15:34:02.335Z,96427.75
2022-12-20T15:36:29.875Z,96450.66
2022-12-20T15:39:14.985Z,96479.09
2022-12-20T15:41:46.277Z,96459.53
2022-12-20T15:44:16.108Z,96458.47
2022-12-20T15:46:44.247Z,96429.31
2022-12-20T15:49:21.297Z,96417.88
2022-12-20T15:51:50.059Z,96393.38
2022-12-20T15:54:27.683Z,96451.03
2022-12-20T15:56:56.374Z,96469.50
2022-12-20T16:02:20.947Z,96467.09
2022-12-20T16:04:48.115Z,96418.34
2022-12-20T16:07:14.844Z,96420.66
2022-12-20T16:09:41.437Z,96396.97
2022-12-20T16:12:16.689Z,96459.69
2022-12-20T16:14:43.459Z,96446.16
2022-12-20T16:17:16.272Z,96437.09
2022-12-20T16:19:43.933Z,96449.38
2022-12-20T16:22:22.358Z,96466.53
2022-12-20T16:24:49.805Z,96422.81
2022-12-20T16:27:16.485Z,96440.56
2022-12-20T16:29:43.057Z,96436.91
2022-12-20T16:32:18.305Z,96439.50
2022-12-20T16:34:45.377Z,96431.19
2022-12-20T16:37:12.236Z,96428.09
2022-12-20T16:39:39.064Z,96414.81
2022-12-20T16:42:23.953Z,96439.59
2022-12-20T16:44:53.346Z,96302.41
2022-12-20T16:47:20.276Z,96417.66
2022-12-20T16:49:52.229Z,96471.28
2022-12-20T16:52:20.110Z,96470.03
2022-12-20T16:54:47.171Z,96459.31
2022-12-20T16:57:13.729Z,96422.84
2022-12-20T16:59:40.369Z,96451.78
2022-12-20T17:02:28.625Z,96445.47
2022-12-20T17:04:55.663Z,96459.00
2022-12-20T17:07:22.538Z,96438.47
2022-12-20T17:09:49.380Z,96437.91
2022-12-20T17:12:18.298Z,96378.09
2022-12-20T17:14:45.067Z,96415.91
2022-12-20T17:17:12.381Z,96415.69
2022-12-20T17:19:39.705Z,96385.44
2022-12-20T17:22:25.413Z,96420.09
2022-12-20T17:24:52.334Z,96359.44
2022-12-20T17:27:19.094Z,96433.06
2022-12-20T17:29:45.865Z,96401.06
2022-12-20T17:32:20.240Z,96414.06
2022-12-20T17:34:47.012Z,96441.25
2022-12-20T17:37:13.745Z,96393.09
2022-12-20T17:39:40.364Z,96395.44
2022-12-20T17:42:09.476Z,96404.84
2022-12-20T17:44:36.109Z,96395.69
2022-12-20T17:47:02.908Z,96398.59
2022-12-20T17:49:29.507Z,96382.19
2022-12-20T17:51:56.634Z,96404.91
2022-12-20T17:54:26.461Z,96413.50
2022-12-20T17:56:55.119Z,96422.59
2022-12-20T17:59:22.453Z,96376.25
2022-12-20T18:01:49.859Z,96414.53
2022-12-20T18:04:17.182Z,96411.38
2022-12-20T18:06:45.515Z,96413.25
2022-12-20T18:09:18.497Z,96404.91
2022-12-20T18:11:46.147Z,96361.72
2022-12-20T18:14:13.188Z,96391.09
2022-12-20T18:16:40.599Z,96394.75
2022-12-20T18:19:14.534Z,96394.75
2022-12-20T18:21:41.748Z,96373.13
2022-12-20T18:24:16.171Z,96403.84
2022-12-20T18:26:43.815Z,96396.81
2022-12-20T18:29:11.076Z,96377.84
2022-12-20T18:31:38.763Z,96425.22
2022-12-20T18:34:05.552Z,96419.72
2022-12-20T18:36:34.908Z,96425.16
2022-12-20T18:39:03.834Z,96393.91
2022-12-20T18:41:31.944Z,96418.63
2022-12-20T18:44:01.015Z,96389.72
2022-12-20T18:46:28.034Z,96391.09
2022-12-20T18:48:58.747Z,96422.63
2022-12-20T18:51:36.951Z,96424.66
2022-12-20T18:54:05.828Z,96407.69
2022-12-20T18:56:34.684Z,96342.81
2022-12-20T18:59:10.296Z,96395.16
2022-12-20T19:01:39.386Z,96389.41
2022-12-20T19:04:07.937Z,96407.06
2022-12-20T19:06:35.904Z,96432.28
2022-12-20T19:09:07.939Z,96386.44
2022-12-20T19:11:34.639Z,96413.53
2022-12-20T19:14:01.326Z,96418.72
2022-12-20T19:16:31.960Z,96389.59
2022-12-20T19:19:00.199Z,96393.44
2022-12-20T19:21:29.572Z,96389.06
2022-12-20T19:23:59.122Z,96377.66
2022-12-20T19:26:27.613Z,96378.97
2022-12-20T19:28:54.719Z,96374.81
2022-12-20T19:31:30.229Z,96388.81
2022-12-20T19:34:02.858Z,96377.66
2022-12-20T19:36:38.533Z,96358.91
2022-12-20T19:39:08.246Z,96370.69
2022-12-20T19:41:36.047Z,96332.91
2022-12-20T19:44:04.619Z,96337.44
2022-12-20T19:46:31.420Z,96358.00
2022-12-20T19:48:59.710Z,96317.44
2022-12-20T19:51:28.328Z,96336.47
2022-12-20T19:53:56.843Z,96293.31
2022-12-20T19:56:27.755Z,96322.13
2022-12-20T19:58:55.503Z,96313.81
2022-12-20T20:01:25.691Z,96346.09
2022-12-20T20:03:54.152Z,96332.84
2022-12-20T20:06:21.341Z,96351.03
2022-12-20T20:08:49.683Z,96339.81
2022-12-20T20:11:17.887Z,96335.63
2022-12-20T20:13:45.451Z,96345.53
2022-12-20T20:16:15.494Z,96316.66
2022-12-20T20:18:47.189Z,96349.16
2022-12-20T20:21:21.212Z,96338.00
2022-12-20T20:23:52.576Z,96323.41
2022-12-20T20:26:22.635Z,96310.66
2022-12-20T20:28:49.655Z,96267.47
2022-12-20T20:31:19.973Z,96284.38
2022-12-20T20:33:47.338Z,96279.41
2022-12-20T20:36:16.723Z,96310.34
2022-12-20T20:38:43.551Z,96319.97
2022-12-20T20:41:10.940Z,96302.03
2022-12-20T20:43:38.418Z,96302.56
2022-12-20T20:46:11.625Z,96333.00
2022-12-20T20:48:42.946Z,96292.44
2022-12-20T20:51:11.219Z,96335.69
2022-12-20T20:53:38.022Z,96315.59
2022-12-20T20:56:06.386Z,96334.56
2022-12-20T20:58:36.568Z,96309.56
2022-12-20T21:01:05.280Z,96318.03
2022-12-20T21:03:32.175Z,96261.56
2022-12-20T21:06:36.539Z,96286.56
2022-12-20T21:08:45.998Z,96307.66
2022-12-20T21:11:13.193Z,96296.75
2022-12-20T21:13:43.040Z,96295.50
2022-12-20T21:16:20.620Z,96285.63
2022-12-20T21:18:54.761Z,96273.13
2022-12-20T21:21:22.290Z,96266.13
2022-12-20T21:23:49.320Z,96266.84
2022-12-20T21:26:18.418Z,96300.53
2022-12-20T21:28:48.840Z,96301.38
2022-12-20T21:31:18.349Z,96286.50
2022-12-20T21:33:48.385Z,96312.00
2022-12-20T21:36:18.067Z,96315.91
2022-12-20T21:38:53.448Z,96293.56
2022-12-20T21:41:25.500Z,96313.81
2022-12-20T21:43:55.653Z,96294.56
2022-12-20T21:46:22.352Z,96303.91
2022-12-20T21:48:48.996Z,96280.47
2022-12-20T21:51:19.376Z,96295.50
2022-12-20T21:53:54.503Z,96289.50
2022-12-20T21:56:22.370Z,96262.97
2022-12-20T21:58:49.643Z,96266.59
2022-12-20T22:01:22.257Z,96285.34
2022-12-20T22:04:07.365Z,96288.47
2022-12-20T22:06:35.356Z,96241.47
2022-12-20T22:09:06.857Z,96289.09
2022-12-20T22:11:34.566Z,96230.31
2022-12-20T22:14:01.587Z,96288.38
2022-12-20T22:16:30.955Z,96289.66
2022-12-20T22:19:04.190Z,96277.94
2022-12-20T22:21:33.067Z,96260.56
2022-12-20T22:24:01.107Z,96290.50
2022-12-20T22:26:30.497Z,96271.28
2022-12-20T22:28:59.972Z,96299.34
2022-12-20T22:31:27.394Z,96265.53
2022-12-20T22:33:55.407Z,96286.38
2022-12-20T22:36:22.878Z,96314.94
2022-12-20T22:38:56.761Z,96306.59
2022-12-20T22:41:40.153Z,96270.13
2022-12-20T22:44:07.372Z,96273.97
2022-12-20T22:46:34.357Z,96280.22
2022-12-20T22:49:01.554Z,96306.28
2022-12-20T22:51:31.131Z,96304.22
2022-12-20T22:53:59.500Z,96309.34
2022-12-20T22:56:26.947Z,96303.06
2022-12-20T22:58:53.695Z,96282.25
2022-12-20T23:01:21.476Z,96309.81
2022-12-20T23:03:48.711Z,96303.28
2022-12-20T23:06:18.178Z,96302.25
2022-12-20T23:08:45.305Z,96243.94
2022-12-20T23:11:59.820Z,96286.13
2022-12-20T23:14:44.808Z,96248.41
2022-12-20T23:17:11.696Z,96259.63
2022-12-20T23:19:59.433Z,96266.44
2022-12-20T23:22:38.260Z,96268.50
2022-12-20T23:25:19.121Z,96273.97
2022-12-20T23:27:48.439Z,96277.63
2022-12-20T23:30:17.663Z,96275.03
2022-12-20T23:32:44.557Z,96274.50
2022-12-20T23:35:13.181Z,96251.91
2022-12-20T23:37:40.118Z,96245.16
2022-12-20T23:40:08.438Z,96244.66
2022-12-20T23:42:35.025Z,96257.66
2022-12-20T23:45:01.783Z,96260.00
2022-12-20T23:47:28.407Z,96241.28
2022-12-20T23:49:55.004Z,96237.91
2022-12-20T23:52:21.806Z,96268.81
2022-12-20T23:54:48.495Z,96259.44
2022-12-20T23:57:15.109Z,96247.72
2022-12-20T23:59:44.492Z,96280.50
